sensor_id;sensor_type;location;lat;lon;timestamp;pressure;altitude;pressure_sealevel;temperature;humidity
76260;BME280;65076;52.362;6.588;2023-12-20T00:03:47;101433.81;;;6.61;98.81
76260;BME280;65076;52.362;6.588;2023-12-20T00:13:52;101442.00;;;6.57;98.08
76260;BME280;65076;52.362;6.588;2023-12-20T00:21:24;101443.41;;;6.74;96.62
76260;BME280;65076;52.362;6.588;2023-12-20T00:26:22;101436.47;;;6.64;96.18
76260;BME280;65076;52.362;6.588;2023-12-20T00:33:56;101402.94;;;6.41;97.08
76260;BME280;65076;52.362;6.588;2023-12-20T00:41:23;101425.41;;;6.36;98.43
76260;BME280;65076;52.362;6.588;2023-12-20T00:43:56;101431.47;;;6.46;97.63
76260;BME280;65076;52.362;6.588;2023-12-20T00:51:30;101432.03;;;6.62;96.66
76260;BME280;65076;52.362;6.588;2023-12-20T00:59:00;101411.72;;;6.49;96.24
76260;BME280;65076;52.362;6.588;2023-12-20T01:04:02;101423.03;;;6.63;95.25
76260;BME280;65076;52.362;6.588;2023-12-20T01:11:35;101409.44;;;6.29;95.96
76260;BME280;65076;52.362;6.588;2023-12-20T01:16:40;101433.69;;;6.27;96.45
76260;BME280;65076;52.362;6.588;2023-12-20T01:19:19;101436.53;;;6.18;96.53
76260;BME280;65076;52.362;6.588;2023-12-20T01:26:55;101426.59;;;6.23;95.52
76260;BME280;65076;52.362;6.588;2023-12-20T01:31:58;101426.13;;;6.45;95.18
76260;BME280;65076;52.362;6.588;2023-12-20T01:39:29;101429.47;;;6.56;94.53
76260;BME280;65076;52.362;6.588;2023-12-20T01:44:32;101428.69;;;6.51;93.34
76260;BME280;65076;52.362;6.588;2023-12-20T01:49:39;101435.19;;;6.41;93.25
76260;BME280;65076;52.362;6.588;2023-12-20T01:52:12;101406.59;;;6.36;94.12
76260;BME280;65076;52.362;6.588;2023-12-20T01:54:44;101417.47;;;6.30;94.89
76260;BME280;65076;52.362;6.588;2023-12-20T01:57:15;101424.22;;;6.50;95.04
76260;BME280;65076;52.362;6.588;2023-12-20T02:04:47;101423.84;;;6.26;95.08
76260;BME280;65076;52.362;6.588;2023-12-20T02:07:20;101416.03;;;6.14;95.08
76260;BME280;65076;52.362;6.588;2023-12-20T02:09:55;101434.72;;;6.20;94.73
76260;BME280;65076;52.362;6.588;2023-12-20T02:17:32;101413.13;;;6.25;95.06
76260;BME280;65076;52.362;6.588;2023-12-20T02:25:09;101379.72;;;5.97;95.82
76260;BME280;65076;52.362;6.588;2023-12-20T02:35:16;101399.81;;;6.19;97.73
76260;BME280;65076;52.362;6.588;2023-12-20T02:45:22;101368.56;;;6.15;96.29
76260;BME280;65076;52.362;6.588;2023-12-20T02:47:58;101391.97;;;6.08;96.41
76260;BME280;65076;52.362;6.588;2023-12-20T02:55:32;101374.91;;;6.12;97.44
76260;BME280;65076;52.362;6.588;2023-12-20T03:03:09;101371.88;;;6.27;96.67
76260;BME280;65076;52.362;6.588;2023-12-20T03:10:42;101354.63;;;6.37;95.76
76260;BME280;65076;52.362;6.588;2023-12-20T03:18:16;101371.56;;;6.41;95.49
76260;BME280;65076;52.362;6.588;2023-12-20T03:23:16;101370.94;;;6.28;95.31
76260;BME280;65076;52.362;6.588;2023-12-20T03:25:52;101380.78;;;6.29;96.25
76260;BME280;65076;52.362;6.588;2023-12-20T03:35:58;101345.44;;;6.48;95.42
76260;BME280;65076;52.362;6.588;2023-12-20T03:38:30;101340.22;;;6.40;94.87
76260;BME280;65076;52.362;6.588;2023-12-20T03:43:34;101351.34;;;6.23;96.82
76260;BME280;65076;52.362;6.588;2023-12-20T03:48:35;101347.22;;;6.49;96.10
76260;BME280;65076;52.362;6.588;2023-12-20T03:53:44;101362.13;;;6.60;96.04
76260;BME280;65076;52.362;6.588;2023-12-20T03:58:44;101350.56;;;6.58;96.06
76260;BME280;65076;52.362;6.588;2023-12-20T04:01:16;101356.75;;;6.62;95.19
76260;BME280;65076;52.362;6.588;2023-12-20T04:08:50;101353.88;;;6.69;94.33
76260;BME280;65076;52.362;6.588;2023-12-20T04:13:50;101360.63;;;6.86;93.84
76260;BME280;65076;52.362;6.588;2023-12-20T04:16:25;101361.44;;;6.91;93.31
76260;BME280;65076;52.362;6.588;2023-12-20T04:19:04;101344.22;;;6.96;92.64
76260;BME280;65076;52.362;6.588;2023-12-20T04:26:32;101352.88;;;7.09;91.79
76260;BME280;65076;52.362;6.588;2023-12-20T04:29:04;101343.91;;;7.08;91.60
76260;BME280;65076;52.362;6.588;2023-12-20T04:36:38;101341.84;;;7.19;91.06
76260;BME280;65076;52.362;6.588;2023-12-20T04:41:42;101339.41;;;7.09;90.74
76260;BME280;65076;52.362;6.588;2023-12-20T04:51:46;101337.16;;;6.92;91.76
76260;BME280;65076;52.362;6.588;2023-12-20T04:54:18;101324.03;;;6.80;92.43
76260;BME280;65076;52.362;6.588;2023-12-20T04:56:51;101339.84;;;6.92;92.04
76260;BME280;65076;52.362;6.588;2023-12-20T05:04:22;101316.25;;;6.68;93.73
76260;BME280;65076;52.362;6.588;2023-12-20T05:11:55;101324.25;;;6.71;93.79
76260;BME280;65076;52.362;6.588;2023-12-20T05:19:28;101282.00;;;6.39;93.75
76260;BME280;65076;52.362;6.588;2023-12-20T05:24:28;101312.88;;;6.60;94.59
76260;BME280;65076;52.362;6.588;2023-12-20T05:27:04;101319.97;;;6.98;93.50
76260;BME280;65076;52.362;6.588;2023-12-20T05:34:37;101317.56;;;6.87;93.27
76260;BME280;65076;52.362;6.588;2023-12-20T05:42:10;101310.25;;;6.92;92.77
76260;BME280;65076;52.362;6.588;2023-12-20T05:49:45;101308.69;;;6.84;92.62
76260;BME280;65076;52.362;6.588;2023-12-20T05:54:44;101317.44;;;6.92;92.69
76260;BME280;65076;52.362;6.588;2023-12-20T05:59:50;101320.22;;;6.89;93.00
76260;BME280;65076;52.362;6.588;2023-12-20T06:04:51;101313.81;;;6.94;92.75
76260;BME280;65076;52.362;6.588;2023-12-20T06:07:22;101318.69;;;6.78;92.95
76260;BME280;65076;52.362;6.588;2023-12-20T06:14:56;101288.00;;;6.86;93.00
76260;BME280;65076;52.362;6.588;2023-12-20T06:19:57;101290.88;;;7.12;91.56
76260;BME280;65076;52.362;6.588;2023-12-20T06:22:30;101303.13;;;7.23;91.05
76260;BME280;65076;52.362;6.588;2023-12-20T06:30:07;101280.59;;;6.95;91.66
76260;BME280;65076;52.362;6.588;2023-12-20T06:40:20;101279.28;;;7.11;90.73
76260;BME280;65076;52.362;6.588;2023-12-20T06:47:53;101294.78;;;7.34;90.47
76260;BME280;65076;52.362;6.588;2023-12-20T06:55:27;101283.84;;;7.40;89.89
76260;BME280;65076;52.362;6.588;2023-12-20T07:00:31;101298.22;;;7.39;89.49
76260;BME280;65076;52.362;6.588;2023-12-20T07:05:33;101287.81;;;7.27;89.94
76260;BME280;65076;52.362;6.588;2023-12-20T07:15:31;101271.16;;;7.44;89.01
76260;BME280;65076;52.362;6.588;2023-12-20T07:18:04;101271.16;;;7.44;89.68
76260;BME280;65076;52.362;6.588;2023-12-20T07:30:39;101276.88;;;7.64;88.75
76260;BME280;65076;52.362;6.588;2023-12-20T07:33:12;101260.31;;;7.47;89.03
76260;BME280;65076;52.362;6.588;2023-12-20T07:40:45;101242.41;;;7.46;88.71
76260;BME280;65076;52.362;6.588;2023-12-20T07:48:17;101264.47;;;7.58;88.26
76260;BME280;65076;52.362;6.588;2023-12-20T07:55:48;101246.06;;;7.43;88.33
76260;BME280;65076;52.362;6.588;2023-12-20T08:00:51;101277.88;;;7.60;88.77
76260;BME280;65076;52.362;6.588;2023-12-20T08:08:24;101273.84;;;7.75;87.92
76260;BME280;65076;52.362;6.588;2023-12-20T08:13:25;101274.63;;;7.80;88.02
76260;BME280;65076;52.362;6.588;2023-12-20T08:15:58;101274.63;;;7.80;87.81
76260;BME280;65076;52.362;6.588;2023-12-20T08:23:33;101273.16;;;7.68;88.56
76260;BME280;65076;52.362;6.588;2023-12-20T08:28:39;101276.16;;;7.88;89.23
76260;BME280;65076;52.362;6.588;2023-12-20T08:31:13;101277.06;;;7.87;89.22
76260;BME280;65076;52.362;6.588;2023-12-20T08:43:46;101275.88;;;7.68;90.69
76260;BME280;65076;52.362;6.588;2023-12-20T08:48:48;101269.72;;;7.63;91.55
76260;BME280;65076;52.362;6.588;2023-12-20T08:51:22;101285.50;;;7.75;91.12
76260;BME280;65076;52.362;6.588;2023-12-20T08:58:54;101268.53;;;7.73;93.16
76260;BME280;65076;52.362;6.588;2023-12-20T09:03:55;101272.50;;;7.60;93.73
76260;BME280;65076;52.362;6.588;2023-12-20T09:06:27;101276.09;;;7.59;94.37
76260;BME280;65076;52.362;6.588;2023-12-20T09:14:03;101282.63;;;7.81;95.82
76260;BME280;65076;52.362;6.588;2023-12-20T09:19:06;101278.25;;;7.48;97.59
76260;BME280;65076;52.362;6.588;2023-12-20T09:24:07;101281.06;;;7.74;96.54
76260;BME280;65076;52.362;6.588;2023-12-20T09:26:40;101268.47;;;8.04;95.13
76260;BME280;65076;52.362;6.588;2023-12-20T09:29:19;101262.97;;;7.79;95.51
76260;BME280;65076;52.362;6.588;2023-12-20T09:36:50;101262.66;;;7.59;97.11
76260;BME280;65076;52.362;6.588;2023-12-20T09:39:22;101258.22;;;7.58;97.82
76260;BME280;65076;52.362;6.588;2023-12-20T09:46:56;101267.13;;;7.89;95.94
76260;BME280;65076;52.362;6.588;2023-12-20T09:57:01;101282.16;;;7.96;95.12
76260;BME280;65076;52.362;6.588;2023-12-20T10:04:40;101285.69;;;8.00;94.50
76260;BME280;65076;52.362;6.588;2023-12-20T10:14:45;101282.75;;;8.37;93.47
76260;BME280;65076;52.362;6.588;2023-12-20T10:17:27;101291.31;;;8.49;92.64
76260;BME280;65076;52.362;6.588;2023-12-20T10:22:29;101256.91;;;8.58;91.43
76260;BME280;65076;52.362;6.588;2023-12-20T10:25:01;101276.59;;;8.86;90.61
76260;BME280;65076;52.362;6.588;2023-12-20T10:32:35;101270.16;;;8.64;90.91
76260;BME280;65076;52.362;6.588;2023-12-20T10:35:08;101278.91;;;8.70;91.08
76260;BME280;65076;52.362;6.588;2023-12-20T10:42:40;101263.91;;;8.63;91.09
76260;BME280;65076;52.362;6.588;2023-12-20T11:07:47;101238.59;;;8.92;90.21
76260;BME280;65076;52.362;6.588;2023-12-20T11:17:54;101231.94;;;8.77;92.12
76260;BME280;65076;52.362;6.588;2023-12-20T11:20:36;101231.38;;;9.17;90.11
76260;BME280;65076;52.362;6.588;2023-12-20T11:30:47;101273.97;;;8.29;88.90
76260;BME280;65076;52.362;6.588;2023-12-20T11:33:26;101246.59;;;7.85;87.88
76260;BME280;65076;52.362;6.588;2023-12-20T11:53:25;101253.88;;;7.82;90.88
76260;BME280;65076;52.362;6.588;2023-12-20T11:58:29;101256.47;;;8.14;90.34
76260;BME280;65076;52.362;6.588;2023-12-20T12:03:30;101242.00;;;8.72;88.10
76260;BME280;65076;52.362;6.588;2023-12-20T12:06:03;101252.44;;;8.57;88.55
76260;BME280;65076;52.362;6.588;2023-12-20T12:13:41;101244.66;;;8.47;90.41
76260;BME280;65076;52.362;6.588;2023-12-20T12:23:47;101235.50;;;8.78;87.92
76260;BME280;65076;52.362;6.588;2023-12-20T12:31:23;101222.03;;;8.78;86.73
76260;BME280;65076;52.362;6.588;2023-12-20T12:36:24;101225.78;;;8.99;85.21
76260;BME280;65076;52.362;6.588;2023-12-20T12:38:57;101217.31;;;8.84;85.42
76260;BME280;65076;52.362;6.588;2023-12-20T12:46:34;101207.88;;;8.96;85.17
76260;BME280;65076;52.362;6.588;2023-12-20T12:54:06;101208.78;;;8.70;85.06
76260;BME280;65076;52.362;6.588;2023-12-20T12:59:08;101209.72;;;8.43;87.16
76260;BME280;65076;52.362;6.588;2023-12-20T13:06:38;101193.41;;;8.20;88.30
76260;BME280;65076;52.362;6.588;2023-12-20T13:11:44;101147.53;;;8.21;89.20
76260;BME280;65076;52.362;6.588;2023-12-20T13:19:16;101159.38;;;8.43;88.99
76260;BME280;65076;52.362;6.588;2023-12-20T13:26:59;101145.97;;;8.91;85.66
76260;BME280;65076;52.362;6.588;2023-12-20T13:31:59;101142.34;;;8.92;87.61
76260;BME280;65076;52.362;6.588;2023-12-20T13:36:57;101153.53;;;8.29;89.16
76260;BME280;65076;52.362;6.588;2023-12-20T13:39:30;101125.34;;;8.13;90.15
76260;BME280;65076;52.362;6.588;2023-12-20T13:52:09;101118.63;;;8.77;88.33
76260;BME280;65076;52.362;6.588;2023-12-20T13:57:09;101115.88;;;9.02;87.99
76260;BME280;65076;52.362;6.588;2023-12-20T13:59:41;101109.06;;;8.92;87.34
76260;BME280;65076;52.362;6.588;2023-12-20T14:07:18;101106.13;;;9.68;85.46
76260;BME280;65076;52.362;6.588;2023-12-20T14:12:19;101120.53;;;8.99;87.33
76260;BME280;65076;52.362;6.588;2023-12-20T14:14:53;101105.88;;;8.81;89.22
76260;BME280;65076;52.362;6.588;2023-12-20T14:17:26;101101.81;;;8.69;90.51
76260;BME280;65076;52.362;6.588;2023-12-20T14:25:10;101105.31;;;8.73;91.02
76260;BME280;65076;52.362;6.588;2023-12-20T14:32:40;101103.06;;;9.09;90.59
76260;BME280;65076;52.362;6.588;2023-12-20T14:35:12;101105.41;;;8.95;89.69
76260;BME280;65076;52.362;6.588;2023-12-20T14:42:49;101104.69;;;8.89;88.10
76260;BME280;65076;52.362;6.588;2023-12-20T14:47:54;101092.00;;;8.91;87.94
76260;BME280;65076;52.362;6.588;2023-12-20T15:02:49;101103.59;;;8.70;88.94
76260;BME280;65076;52.362;6.588;2023-12-20T15:10:20;101111.50;;;8.75;88.44
76260;BME280;65076;52.362;6.588;2023-12-20T15:12:53;101107.13;;;8.72;87.85
76260;BME280;65076;52.362;6.588;2023-12-20T15:20:37;101130.22;;;9.27;86.61
76260;BME280;65076;52.362;6.588;2023-12-20T15:25:40;101135.47;;;8.84;86.56
76260;BME280;65076;52.362;6.588;2023-12-20T15:30:40;101074.84;;;8.69;87.79
76260;BME280;65076;52.362;6.588;2023-12-20T15:33:18;101084.13;;;8.62;85.91
76260;BME280;65076;52.362;6.588;2023-12-20T15:40:53;101094.88;;;8.87;88.05
76260;BME280;65076;52.362;6.588;2023-12-20T15:43:24;101058.81;;;8.65;87.26
76260;BME280;65076;52.362;6.588;2023-12-20T15:48:26;101092.34;;;8.82;87.79
76260;BME280;65076;52.362;6.588;2023-12-20T15:50:58;101073.47;;;8.82;87.86
76260;BME280;65076;52.362;6.588;2023-12-20T15:58:33;101072.06;;;8.72;88.38
76260;BME280;65076;52.362;6.588;2023-12-20T16:03:33;101070.56;;;8.39;90.05
76260;BME280;65076;52.362;6.588;2023-12-20T16:06:05;101074.75;;;8.72;90.81
76260;BME280;65076;52.362;6.588;2023-12-20T16:16:09;101062.84;;;8.78;89.82
76260;BME280;65076;52.362;6.588;2023-12-20T16:21:11;101056.56;;;8.77;89.64
76260;BME280;65076;52.362;6.588;2023-12-20T16:26:14;101041.66;;;8.67;90.33
76260;BME280;65076;52.362;6.588;2023-12-20T16:31:18;101049.06;;;8.85;90.90
76260;BME280;65076;52.362;6.588;2023-12-20T16:36:19;101042.38;;;8.72;91.15
76260;BME280;65076;52.362;6.588;2023-12-20T16:38:51;101049.59;;;8.72;91.89
76260;BME280;65076;52.362;6.588;2023-12-20T16:51:23;101018.75;;;8.79;90.77
76260;BME280;65076;52.362;6.588;2023-12-20T17:03:55;100982.19;;;8.93;91.81
76260;BME280;65076;52.362;6.588;2023-12-20T17:11:31;100984.78;;;8.73;92.24
76260;BME280;65076;52.362;6.588;2023-12-20T17:21:37;100956.63;;;8.80;92.93
76260;BME280;65076;52.362;6.588;2023-12-20T17:29:15;100956.38;;;8.86;94.37
76260;BME280;65076;52.362;6.588;2023-12-20T17:34:16;100918.16;;;8.75;94.65
76260;BME280;65076;52.362;6.588;2023-12-20T17:39:17;100903.16;;;8.68;95.00
76260;BME280;65076;52.362;6.588;2023-12-20T17:41:50;100922.09;;;8.67;96.22
76260;BME280;65076;52.362;6.588;2023-12-20T17:49:27;100916.38;;;8.74;96.02
76260;BME280;65076;52.362;6.588;2023-12-20T17:51:58;100894.66;;;8.56;96.45
76260;BME280;65076;52.362;6.588;2023-12-20T17:59:29;100862.78;;;8.43;98.17
76260;BME280;65076;52.362;6.588;2023-12-20T18:12:01;100866.59;;;8.61;100.00
76260;BME280;65076;52.362;6.588;2023-12-20T18:17:03;100865.69;;;8.14;100.00
76260;BME280;65076;52.362;6.588;2023-12-20T18:19:38;100874.06;;;8.31;100.00
76260;BME280;65076;52.362;6.588;2023-12-20T18:27:13;100856.03;;;8.55;100.00
76260;BME280;65076;52.362;6.588;2023-12-20T18:29:46;100827.41;;;8.28;100.00
76260;BME280;65076;52.362;6.588;2023-12-20T18:32:23;100848.56;;;8.40;100.00
76260;BME280;65076;52.362;6.588;2023-12-20T18:39:58;100839.59;;;8.39;100.00
76260;BME280;65076;52.362;6.588;2023-12-20T18:45:03;100822.94;;;8.52;100.00
76260;BME280;65076;52.362;6.588;2023-12-20T18:50:05;100826.69;;;8.69;100.00
76260;BME280;65076;52.362;6.588;2023-12-20T18:55:08;100817.41;;;8.55;100.00
76260;BME280;65076;52.362;6.588;2023-12-20T18:57:38;100799.88;;;8.43;100.00
76260;BME280;65076;52.362;6.588;2023-12-20T19:07:42;100804.94;;;8.52;100.00
76260;BME280;65076;52.362;6.588;2023-12-20T19:12:42;100788.31;;;8.63;100.00
76260;BME280;65076;52.362;6.588;2023-12-20T19:15:16;100790.78;;;8.69;100.00
76260;BME280;65076;52.362;6.588;2023-12-20T19:22:52;100775.13;;;8.77;100.00
76260;BME280;65076;52.362;6.588;2023-12-20T19:30:21;100762.22;;;8.63;100.00
76260;BME280;65076;52.362;6.588;2023-12-20T19:35:25;100758.69;;;8.83;100.00
76260;BME280;65076;52.362;6.588;2023-12-20T19:40:27;100757.91;;;8.79;100.00
76260;BME280;65076;52.362;6.588;2023-12-20T19:45:28;100732.91;;;8.76;100.00
76260;BME280;65076;52.362;6.588;2023-12-20T19:50:31;100736.22;;;8.82;100.00
76260;BME280;65076;52.362;6.588;2023-12-20T19:55:35;100716.72;;;8.76;100.00
76260;BME280;65076;52.362;6.588;2023-12-20T19:58:08;100716.72;;;8.76;100.00
76260;BME280;65076;52.362;6.588;2023-12-20T20:03:08;100729.81;;;8.85;100.00
76260;BME280;65076;52.362;6.588;2023-12-20T20:05:41;100726.38;;;8.81;100.00
76260;BME280;65076;52.362;6.588;2023-12-20T20:13:15;100703.44;;;8.71;100.00
76260;BME280;65076;52.362;6.588;2023-12-20T20:18:18;100717.81;;;8.92;100.00
76260;BME280;65076;52.362;6.588;2023-12-20T20:23:17;100715.25;;;8.89;100.00
76260;BME280;65076;52.362;6.588;2023-12-20T20:28:19;100689.06;;;8.91;100.00
76260;BME280;65076;52.362;6.588;2023-12-20T20:33:25;100667.91;;;8.82;100.00
76260;BME280;65076;52.362;6.588;2023-12-20T20:40:53;100690.41;;;8.81;100.00
76260;BME280;65076;52.362;6.588;2023-12-20T20:45:56;100705.19;;;8.92;100.00
76260;BME280;65076;52.362;6.588;2023-12-20T20:50:59;100688.81;;;8.97;100.00
76260;BME280;65076;52.362;6.588;2023-12-20T20:55:59;100678.47;;;9.07;100.00
76260;BME280;65076;52.362;6.588;2023-12-20T20:58:35;100683.34;;;8.99;100.00
76260;BME280;65076;52.362;6.588;2023-12-20T21:06:10;100686.03;;;9.19;100.00
76260;BME280;65076;52.362;6.588;2023-12-20T21:08:45;100685.38;;;9.14;100.00
76260;BME280;65076;52.362;6.588;2023-12-20T21:11:18;100683.97;;;9.05;100.00
76260;BME280;65076;52.362;6.588;2023-12-20T21:16:19;100665.53;;;9.15;100.00
76260;BME280;65076;52.362;6.588;2023-12-20T21:21:28;100651.66;;;9.22;100.00
76260;BME280;65076;52.362;6.588;2023-12-20T21:26:28;100609.41;;;9.03;100.00
76260;BME280;65076;52.362;6.588;2023-12-20T21:29:01;100622.69;;;9.07;100.00
76260;BME280;65076;52.362;6.588;2023-12-20T21:36:40;100617.25;;;9.27;100.00
76260;BME280;65076;52.362;6.588;2023-12-20T21:44:10;100582.38;;;9.23;100.00
76260;BME280;65076;52.362;6.588;2023-12-20T21:49:12;100619.09;;;9.46;100.00
76260;BME280;65076;52.362;6.588;2023-12-20T21:51:48;100623.22;;;9.53;100.00
76260;BME280;65076;52.362;6.588;2023-12-20T21:56:53;100620.75;;;9.86;100.00
76260;BME280;65076;52.362;6.588;2023-12-20T22:01:54;100619.72;;;9.69;100.00
76260;BME280;65076;52.362;6.588;2023-12-20T22:09:24;100648.88;;;9.82;100.00
76260;BME280;65076;52.362;6.588;2023-12-20T22:16:52;100644.56;;;9.77;100.00
76260;BME280;65076;52.362;6.588;2023-12-20T22:19:28;100654.56;;;9.94;100.00
76260;BME280;65076;52.362;6.588;2023-12-20T22:27:04;100632.44;;;9.86;100.00
76260;BME280;65076;52.362;6.588;2023-12-20T22:32:06;100610.84;;;9.67;100.00
76260;BME280;65076;52.362;6.588;2023-12-20T22:34:38;100613.53;;;9.67;100.00
76260;BME280;65076;52.362;6.588;2023-12-20T22:42:14;100586.75;;;9.63;100.00
76260;BME280;65076;52.362;6.588;2023-12-20T22:49:42;100596.34;;;9.87;100.00
76260;BME280;65076;52.362;6.588;2023-12-20T22:52:15;100594.25;;;9.75;100.00
76260;BME280;65076;52.362;6.588;2023-12-20T22:59:51;100580.38;;;9.83;100.00
76260;BME280;65076;52.362;6.588;2023-12-20T23:07:20;100561.94;;;9.91;100.00
76260;BME280;65076;52.362;6.588;2023-12-20T23:09:54;100555.13;;;10.01;100.00
76260;BME280;65076;52.362;6.588;2023-12-20T23:17:28;100557.38;;;10.10;100.00
76260;BME280;65076;52.362;6.588;2023-12-20T23:25:00;100548.03;;;9.81;100.00
76260;BME280;65076;52.362;6.588;2023-12-20T23:29:59;100516.84;;;9.74;100.00
76260;BME280;65076;52.362;6.588;2023-12-20T23:35:03;100526.13;;;10.04;100.00
76260;BME280;65076;52.362;6.588;2023-12-20T23:40:06;100507.91;;;9.91;100.00
76260;BME280;65076;52.362;6.588;2023-12-20T23:47:36;100516.97;;;10.07;100.00
76260;BME280;65076;52.362;6.588;2023-12-20T23:52:40;100502.19;;;10.14;100.00
76260;BME280;65076;52.362;6.588;2023-12-20T23:57:40;100499.50;;;10.14;100.00
